Time;durP1;ratioP1;P1;durP2;ratioP2;P2;SDS_P1;SDS_P2;PMS_P1;PMS_P2;Temp;Humidity;BMP_temperature;BMP_pressure;BME280_temperature;BME280_humidity;BME280_pressure;Samples;Min_cycle;Max_cycle;Signal;HPM_P1;HPM_P2
2022/05/09 10:43:34;;;;;;;3.78;3.15;;;;;;;23.35;42.13;101503.63;5384314;22;20870;-65
2022/05/09 10:46:10;;;;;;;3.90;2.70;;;;;;;23.84;41.64;101506.81;5005544;28;20053;-65
2022/05/09 10:49:02;;;;;;;5.07;3.25;;;;;;;24.35;42.41;101502.84;5001406;28;20051;-65
2022/05/09 10:51:56;;;;;;;3.10;2.75;;;;;;;24.58;37.67;101499.53;4994100;28;20045;-65
2022/05/09 10:54:42;;;;;;;3.88;3.17;;;;;;;24.86;36.95;101498.75;4966902;28;20053;-65
2022/05/09 10:57:36;;;;;;;6.05;3.42;;;;;;;24.72;39.94;101496.34;5006662;28;20058;-65
2022/05/09 11:00:22;;;;;;;4.15;3.80;;;;;;;24.71;41.17;101492.72;4994037;28;20038;-65
2022/05/09 11:03:09;;;;;;;3.78;3.30;;;;;;;24.66;40.14;101484.56;4980432;28;20047;-65
2022/05/09 11:05:46;;;;;;;3.97;3.35;;;;;;;24.41;40.55;101493.88;4998371;28;20126;-65
2022/05/09 11:08:26;;;;;;;5.85;3.53;;;;;;;24.48;41.50;101484.06;4993980;28;20050;-65
2022/05/09 11:11:22;;;;;;;6.57;3.88;;;;;;;24.48;40.34;101472.88;5004509;28;20050;-65
2022/05/09 11:14:10;;;;;;;;;;;;;;;24.59;39.59;101478.78;5007546;28;20050;-65
2022/05/09 11:16:50;;;;;;;5.57;3.97;;;;;;;24.50;42.21;101470.53;5015544;28;19925;-65
2022/05/09 11:19:41;;;;;;;6.22;4.07;;;;;;;24.73;41.66;101467.19;4997457;28;20054;-65
2022/05/09 11:22:17;;;;;;;4.57;3.60;;;;;;;24.90;39.38;101464.09;5011378;28;20049;-65
2022/05/09 11:24:59;;;;;;;4.22;3.85;;;;;;;25.11;39.06;101470.66;5011555;28;20053;-66
2022/05/09 11:28:19;;;;;;;6.90;4.13;;;;;;;25.36;38.32;101463.72;5009226;28;20049;-65
2022/05/09 11:30:50;;;;;;;5.82;4.15;;;;;;;25.47;39.40;101461.19;4967933;28;20317;-66
2022/05/09 11:33:53;;;;;;;5.40;3.95;;;;;;;25.14;40.12;101465.16;4971926;28;20429;-66
2022/05/09 11:36:39;;;;;;;5.43;3.75;;;;;;;25.33;39.54;101452.41;4998298;28;20080;-66
2022/05/09 11:39:18;;;;;;;5.93;4.15;;;;;;;25.60;40.14;101445.13;5005641;28;20053;-66
2022/05/09 11:41:45;;;;;;;4.30;3.90;;;;;;;25.66;39.38;101444.84;5003937;28;20054;-65
2022/05/09 11:44:19;;;;;;;4.80;3.90;;;;;;;25.64;39.21;101442.41;5008220;28;20516;-66
2022/05/09 11:47:05;;;;;;;5.80;4.00;;;;;;;25.07;39.92;101443.34;5004370;28;20045;-66
2022/05/09 11:49:50;;;;;;;5.13;3.80;;;;;;;25.30;39.57;101447.53;5016314;28;20491;-66
2022/05/09 11:52:28;;;;;;;6.30;4.55;;;;;;;25.08;40.80;101452.59;5002808;28;20049;-65
2022/05/09 11:55:06;;;;;;;4.90;4.28;;;;;;;25.17;40.68;101435.59;4990057;28;20393;-65
2022/05/09 11:57:38;;;;;;;7.20;4.78;;;;;;;25.15;39.82;101429.53;4999773;28;20069;-65
2022/05/09 12:00:33;;;;;;;6.40;4.35;;;;;;;25.29;40.55;101440.31;5012457;28;20168;-65
2022/05/09 12:03:06;;;;;;;4.95;4.38;;;;;;;25.44;40.56;101450.72;5003319;28;20046;-65
2022/05/09 12:05:37;;;;;;;5.03;4.13;;;;;;;25.46;38.98;101445.53;4999381;28;20054;-65
2022/05/09 12:08:14;;;;;;;7.60;4.20;;;;;;;25.34;38.91;101435.25;5011485;28;20477;-65
2022/05/09 12:10:44;;;;;;;6.68;4.78;;;;;;;25.57;39.89;101425.41;5017826;28;20046;-65
2022/05/09 12:13:24;;;;;;;8.02;4.20;;;;;;;25.55;40.34;101433.38;5012526;28;20058;-66
2022/05/09 12:15:53;;;;;;;6.07;4.20;;;;;;;25.68;39.65;101434.91;5010006;28;20053;-65
2022/05/09 12:18:22;;;;;;;7.43;4.20;;;;;;;25.60;40.48;101424.69;5011906;28;20503;-66
2022/05/09 12:20:52;;;;;;;5.90;4.18;;;;;;;25.72;41.00;101426.56;5011879;28;20404;-65
2022/05/09 12:23:41;;;;;;;8.05;4.35;;;;;;;25.75;40.86;101421.06;5010323;28;20052;-65
2022/05/09 12:26:28;;;;;;;6.30;4.50;;;;;;;25.66;40.31;101423.22;5011248;28;20061;-65
2022/05/09 12:29:16;;;;;;;5.20;4.13;;;;;;;25.52;41.08;101409.69;5009082;28;20037;-65
2022/05/09 12:32:00;;;;;;;4.72;3.88;;;;;;;25.33;40.33;101421.59;5010691;28;20046;-66
2022/05/09 12:34:40;;;;;;;7.38;4.25;;;;;;;25.50;40.01;101414.81;5010135;28;20053;-65
2022/05/09 12:37:11;;;;;;;5.00;4.50;;;;;;;25.66;40.35;101417.63;4993680;28;20057;-65
2022/05/09 12:39:48;;;;;;;5.53;4.60;;;;;;;25.51;40.85;101408.03;5010486;28;20045;-65
2022/05/09 12:42:39;;;;;;;4.95;4.43;;;;;;;25.38;40.60;101412.94;5010310;28;20052;-65
2022/05/09 12:45:11;;;;;;;;;;;;;;;25.35;40.40;101413.66;5010692;28;20064;-65
2022/05/09 12:47:41;;;;;;;7.65;4.82;;;;;;;25.28;42.51;101407.88;5007216;28;19936;-65
2022/05/09 12:50:16;;;;;;;4.63;4.18;;;;;;;25.55;41.36;101392.16;5000866;28;20046;-65
2022/05/09 12:52:52;;;;;;;4.95;4.45;;;;;;;26.11;41.14;101409.00;5003734;28;20489;-65
2022/05/09 12:55:55;;;;;;;4.65;4.15;;;;;;;26.17;38.74;101397.16;5001599;28;20047;-65
2022/05/09 12:58:33;;;;;;;8.23;4.43;;;;;;;26.07;40.34;101400.53;5003773;28;20057;-65
2022/05/09 13:01:14;;;;;;;5.15;4.55;;;;;;;26.24;40.89;101402.09;5006757;28;20042;-65
2022/05/09 13:04:16;;;;;;;4.28;3.88;;;;;;;26.37;37.34;101401.97;5007525;28;20050;-65
2022/05/09 13:06:49;;;;;;;5.78;4.35;;;;;;;26.56;37.61;101401.13;5002046;28;20058;-65
2022/05/09 13:09:30;;;;;;;7.43;4.93;;;;;;;26.82;37.89;101402.41;5010401;28;20052;-66
2022/05/09 13:12:13;;;;;;;6.22;4.80;;;;;;;26.67;37.67;101402.16;5009227;28;20054;-65
2022/05/09 13:14:41;;;;;;;5.57;5.03;;;;;;;26.49;36.24;101399.00;5009991;28;20501;-66
2022/05/09 13:17:19;;;;;;;5.13;4.57;;;;;;;26.52;36.71;101403.88;4999348;28;20060;-66
2022/05/09 13:19:52;;;;;;;5.38;4.47;;;;;;;26.68;37.41;101397.34;4998001;28;20057;-65
2022/05/09 13:22:34;;;;;;;5.07;4.57;;;;;;;26.79;36.84;101392.75;5007743;28;20053;-66
2022/05/09 13:25:12;;;;;;;6.47;4.43;;;;;;;26.96;37.40;101391.50;5008723;28;20060;-65
2022/05/09 13:27:47;;;;;;;4.75;4.25;;;;;;;26.97;36.94;101392.28;5011759;28;20528;-65
2022/05/09 13:30:17;;;;;;;6.53;4.82;;;;;;;26.02;37.15;101387.63;5002185;28;20054;-66
2022/05/09 13:32:55;;;;;;;5.35;4.40;;;;;;;25.61;39.03;101384.28;4999541;28;20042;-65
2022/05/09 13:35:33;;;;;;;7.30;4.30;;;;;;;25.57;38.14;101389.00;5000787;28;20050;-65
2022/05/09 13:38:24;;;;;;;5.13;4.57;;;;;;;25.54;40.47;101384.94;5003695;28;20050;-65
2022/05/09 13:41:01;;;;;;;5.40;4.00;;;;;;;25.20;39.17;101384.47;4999796;28;20046;-65
2022/05/09 13:43:37;;;;;;;4.22;3.83;;;;;;;24.69;41.03;101397.94;4998897;28;20449;-65
2022/05/09 13:46:28;;;;;;;3.92;3.33;;;;;;;24.32;42.48;101403.69;5006087;28;20042;-66
2022/05/09 13:49:00;;;;;;;3.60;3.03;;;;;;;24.00;43.00;101395.13;5002638;28;20048;-65
2022/05/09 13:51:32;;;;;;;5.43;3.60;;;;;;;23.74;43.91;101401.91;5004182;28;20042;-65
2022/05/09 13:54:04;;;;;;;4.25;3.45;;;;;;;23.45;45.05;101395.41;4998360;28;20057;-65
2022/05/09 13:56:35;;;;;;;3.65;3.22;;;;;;;23.35;46.13;101385.53;5006117;28;20059;-65
2022/05/09 13:59:23;;;;;;;4.45;3.50;;;;;;;23.23;46.87;101378.72;4997326;28;20508;-65
2022/05/09 14:01:53;;;;;;;5.47;3.60;;;;;;;23.19;47.52;101371.41;5007531;28;20050;-65
2022/05/09 14:04:23;;;;;;;5.82;3.65;;;;;;;23.26;47.66;101370.84;5004363;28;20061;-65
2022/05/09 14:06:53;;;;;;;4.22;3.53;;;;;;;23.31;47.72;101374.22;5009149;28;20058;-65
2022/05/09 14:09:27;;;;;;;4.00;3.53;;;;;;;23.16;47.60;101374.91;4999686;28;20061;-66
2022/05/09 14:11:58;;;;;;;5.82;3.60;;;;;;;23.09;47.73;101367.09;5009763;28;20045;-65
2022/05/09 14:14:48;;;;;;;4.10;3.70;;;;;;;23.16;47.57;101369.31;5009214;28;20061;-65
2022/05/09 14:17:24;;;;;;;4.28;3.33;;;;;;;23.14;48.04;101366.03;5005955;28;20042;-65
2022/05/09 14:19:57;;;;;;;5.60;3.30;;;;;;;23.52;47.75;101352.94;5003143;28;20780;-65
2022/05/09 14:22:28;;;;;;;3.55;3.25;;;;;;;23.72;47.90;101360.38;5009935;28;20046;-65
2022/05/09 14:30:43;;;;;;;5.18;4.38;;;;;;;23.43;48.77;101358.66;5007236;28;20049;-66
2022/05/09 14:33:32;;;;;;;5.40;4.10;;;;;;;23.04;49.78;101350.56;5012463;28;20053;-65
2022/05/09 14:36:09;;;;;;;4.50;3.90;;;;;;;22.94;49.61;101347.06;5010317;28;20046;-65
2022/05/09 14:38:43;;;;;;;4.15;3.50;;;;;;;23.29;48.96;101350.59;5011382;28;20056;-66
2022/05/09 14:41:41;;;;;;;8.93;4.32;;;;;;;23.51;47.42;101342.94;4999598;28;20046;-65
2022/05/09 14:44:26;;;;;;;6.63;4.35;;;;;;;24.23;46.40;101345.13;4992519;28;20047;-65
2022/05/09 14:46:58;;;;;;;;;;;;;;;24.59;44.87;101345.31;5002937;28;20397;-67
2022/05/09 14:50:06;;;;;;;5.88;4.07;;;;;;;24.74;44.23;101343.69;5000139;28;19933;-67
2022/05/09 14:52:52;;;;;;;6.95;4.10;;;;;;;24.63;43.54;101346.19;5004509;28;20047;-65
2022/05/09 14:58:37;;;;;;;5.28;4.15;;;;;;;24.74;44.29;101342.88;4998977;28;20050;-66
2022/05/09 15:01:21;;;;;;;10.15;4.95;;;;;;;24.43;44.47;101348.88;5009099;28;20118;-66
2022/05/09 15:03:55;;;;;;;6.13;4.25;;;;;;;24.24;45.20;101351.53;5009399;28;20508;-66
2022/05/09 15:06:28;;;;;;;4.65;3.65;;;;;;;23.99;45.25;101345.97;5013940;28;20072;-67
2022/05/09 15:09:01;;;;;;;8.18;3.78;;;;;;;23.70;46.38;101339.53;5012215;28;20397;-66
2022/05/09 15:11:37;;;;;;;4.07;3.67;;;;;;;23.59;47.29;101339.19;5007598;28;20046;-66
2022/05/09 15:14:13;;;;;;;4.43;3.95;;;;;;;23.35;46.92;101347.25;5011542;28;20121;-66
2022/05/09 15:16:50;;;;;;;5.32;3.80;;;;;;;23.33;47.71;101355.19;4995198;28;20053;-66
2022/05/09 15:19:26;;;;;;;7.63;4.20;;;;;;;23.20;52.03;101350.69;5004538;28;20550;-66
2022/05/09 15:21:54;;;;;;;6.22;4.07;;;;;;;22.94;54.56;101355.44;5009355;28;20417;-66
2022/05/09 15:24:22;;;;;;;5.03;4.07;;;;;;;22.85;59.10;101353.91;5011652;28;20590;-66
2022/05/09 15:26:51;;;;;;;6.40;4.75;;;;;;;22.70;59.21;101350.63;5004476;28;20042;-66
2022/05/09 15:29:19;;;;;;;7.03;4.28;;;;;;;22.42;61.70;101356.78;5010122;28;20501;-66
2022/05/09 15:31:51;;;;;;;6.65;4.35;;;;;;;22.36;64.70;101353.41;5010539;28;20390;-65
2022/05/09 15:34:19;;;;;;;6.97;4.68;;;;;;;22.27;63.13;101342.34;5007101;28;20050;-66
2022/05/09 15:36:47;;;;;;;6.15;4.90;;;;;;;22.24;63.51;101333.84;5002446;28;20049;-66
2022/05/09 15:39:16;;;;;;;5.05;4.30;;;;;;;22.15;63.56;101331.94;4996121;28;20126;-66
2022/05/09 15:41:50;;;;;;;6.57;4.55;;;;;;;22.16;63.02;101332.75;5011057;28;20053;-66
2022/05/09 15:44:23;;;;;;;6.85;5.15;;;;;;;22.12;65.14;101334.59;5012342;28;20064;-66
2022/05/09 15:47:00;;;;;;;9.15;4.68;;;;;;;22.15;62.36;101347.84;5003916;28;20501;-66
2022/05/09 15:49:34;;;;;;;7.00;5.05;;;;;;;22.11;64.82;101347.72;5007186;28;20061;-66
2022/05/09 15:52:07;;;;;;;8.40;4.60;;;;;;;22.23;63.26;101348.91;4990968;28;20130;-66
2022/05/09 15:54:36;;;;;;;6.00;4.75;;;;;;;22.19;64.92;101347.97;5007192;28;20046;-66
2022/05/09 15:57:07;;;;;;;7.53;5.03;;;;;;;22.31;64.69;101347.19;5008471;28;20054;-66
2022/05/09 15:59:38;;;;;;;7.18;4.32;;;;;;;22.38;61.72;101351.06;4986571;28;20049;-66
2022/05/09 16:02:10;;;;;;;5.68;4.28;;;;;;;22.54;60.20;101345.69;5004441;28;20053;-65
2022/05/09 16:04:42;;;;;;;6.72;4.22;;;;;;;22.67;61.84;101356.88;5002787;28;20045;-66
2022/05/09 16:12:46;;;;;;;4.10;3.70;;;;;;;22.90;53.98;101359.28;5006161;28;20045;-66
2022/05/09 16:15:21;;;;;;;4.32;3.70;;;;;;;22.81;50.00;101351.81;5004610;28;20389;-66
2022/05/09 16:17:55;;;;;;;4.53;3.85;;;;;;;22.72;50.31;101347.50;5010892;28;20050;-66
2022/05/09 16:20:22;;;;;;;;;;;;;;;22.53;51.34;101351.63;5012707;28;20404;-66
2022/05/09 16:22:50;;;;;;;6.88;3.90;;;;;;;22.49;53.78;101351.44;5011401;28;19925;-66
2022/05/09 16:25:19;;;;;;;6.35;4.43;;;;;;;22.17;55.02;101350.28;5005136;28;20054;-66
2022/05/09 16:27:48;;;;;;;5.47;3.30;;;;;;;21.81;55.00;101341.38;5001808;28;20497;-66
2022/05/09 16:30:26;;;;;;;5.10;3.85;;;;;;;21.48;57.57;101340.91;5006371;28;20049;-66
2022/05/09 16:32:56;;;;;;;4.60;4.20;;;;;;;21.25;59.19;101336.78;5007783;28;20053;-66
2022/05/09 16:35:25;;;;;;;4.35;3.95;;;;;;;21.17;59.58;101330.91;5010843;28;20046;-66
2022/05/09 16:37:55;;;;;;;6.50;3.78;;;;;;;21.02;59.09;101331.47;4988581;28;20072;-66
2022/05/09 16:40:27;;;;;;;8.45;4.28;;;;;;;20.83;60.28;101329.88;5003271;28;20050;-66
2022/05/09 16:42:55;;;;;;;3.75;3.38;;;;;;;20.84;60.57;101337.06;5005120;28;20061;-66
2022/05/09 16:45:25;;;;;;;3.83;3.53;;;;;;;20.84;59.52;101323.16;5000386;28;20046;-66
2022/05/09 16:47:53;;;;;;;4.35;3.80;;;;;;;20.81;60.12;101324.63;5009385;28;20049;-66
2022/05/09 16:50:27;;;;;;;5.18;3.50;;;;;;;20.86;60.07;101323.66;5011816;28;20049;-66
2022/05/09 16:52:55;;;;;;;3.97;3.65;;;;;;;20.88;60.35;101332.47;5008853;28;20496;-66
2022/05/09 16:55:25;;;;;;;3.88;3.47;;;;;;;20.88;59.63;101326.91;5005238;28;20452;-66
2022/05/09 16:57:58;;;;;;;4.90;3.90;;;;;;;20.86;57.80;101323.66;5005544;28;20060;-66
2022/05/09 17:00:27;;;;;;;6.32;4.28;;;;;;;20.81;59.07;101319.06;4995696;28;20054;-66
2022/05/09 17:02:56;;;;;;;6.65;4.10;;;;;;;20.86;59.67;101315.31;5008882;28;20489;-66
2022/05/09 17:05:24;;;;;;;5.22;4.50;;;;;;;20.78;60.93;101318.94;5003119;28;20057;-66
2022/05/09 17:07:52;;;;;;;4.63;4.00;;;;;;;20.65;63.75;101321.59;5007690;28;20041;-66
2022/05/09 17:10:22;;;;;;;8.20;4.43;;;;;;;20.51;64.64;101320.94;5009400;28;20096;-66
2022/05/09 17:12:53;;;;;;;7.40;4.40;;;;;;;20.40;66.76;101326.84;5008395;28;20041;-66
2022/05/09 17:15:26;;;;;;;8.30;4.28;;;;;;;20.38;66.62;101320.00;5010474;28;20056;-66
2022/05/09 17:17:54;;;;;;;7.93;4.72;;;;;;;20.30;67.62;101318.03;5003370;28;20050;-66
2022/05/09 17:20:26;;;;;;;10.40;4.47;;;;;;;20.23;67.38;101324.13;5008686;28;20492;-66
2022/05/09 17:22:54;;;;;;;7.40;4.63;;;;;;;20.20;67.63;101325.59;5000366;28;20039;-66
2022/05/09 17:25:28;;;;;;;6.05;5.30;;;;;;;20.16;69.73;101323.75;4993710;28;20046;-66
2022/05/09 17:27:57;;;;;;;5.22;4.72;;;;;;;20.07;70.89;101332.94;5006110;28;20037;-66
2022/05/09 17:30:27;;;;;;;6.00;4.63;;;;;;;20.16;68.69;101334.88;4993606;28;20038;-66
2022/05/09 17:33:17;;;;;;;5.78;4.82;;;;;;;20.21;68.53;101332.75;5010580;28;20046;-66
2022/05/09 17:38:32;;;;;;;6.50;4.28;;;;;;;20.23;68.85;101338.00;4996635;28;20512;-66
2022/05/09 17:41:08;;;;;;;5.25;4.18;;;;;;;20.20;68.79;101338.66;5010126;28;20064;-66
2022/05/09 17:43:36;;;;;;;6.93;5.03;;;;;;;20.13;69.35;101344.69;5009718;28;20057;-66
2022/05/09 17:46:04;;;;;;;7.18;4.78;;;;;;;20.04;69.41;101350.22;5010601;28;20058;-66
2022/05/09 17:48:32;;;;;;;6.80;4.20;;;;;;;20.10;69.28;101343.38;5004474;28;20055;-66
2022/05/09 17:51:00;;;;;;;6.13;4.72;;;;;;;20.06;69.87;101350.75;5007949;28;20047;-66
2022/05/09 17:53:28;;;;;;;7.88;5.00;;;;;;;20.03;69.71;101354.16;5001247;28;20068;-66
2022/05/09 17:55:58;;;;;;;5.28;4.78;;;;;;;19.93;69.87;101351.66;5024457;28;20053;-66
2022/05/09 17:58:33;;;;;;;6.15;5.30;;;;;;;19.86;70.61;101355.75;5010932;28;20053;-67
2022/05/09 18:01:06;;;;;;;7.47;5.00;;;;;;;19.87;70.25;101360.19;5011050;28;20485;-66
2022/05/09 18:03:34;;;;;;;8.60;5.43;;;;;;;19.86;70.02;101361.28;5011585;28;20045;-66
2022/05/09 18:06:02;;;;;;;6.00;4.85;;;;;;;19.75;69.48;101365.56;5011656;28;20061;-66
2022/05/09 18:08:30;;;;;;;8.35;5.78;;;;;;;19.68;70.12;101359.63;5014951;28;20400;-66
2022/05/09 18:10:59;;;;;;;7.60;4.90;;;;;;;19.53;70.47;101366.47;5015500;28;20046;-66
2022/05/09 18:13:31;;;;;;;7.05;5.60;;;;;;;19.56;71.03;101369.41;5014713;28;20037;-66
2022/05/09 18:16:00;;;;;;;8.95;5.45;;;;;;;19.49;70.86;101363.50;5015336;28;20054;-66
2022/05/09 18:18:31;;;;;;;7.20;5.47;;;;;;;19.45;71.92;101362.50;5014599;28;20037;-66
2022/05/09 18:21:11;;;;;;;5.93;4.90;;;;;;;19.41;72.29;101367.09;5013146;28;20060;-65
2022/05/09 18:23:53;;;;;;;7.22;5.03;;;;;;;19.34;72.91;101371.16;5014586;28;20135;-66
2022/05/09 18:26:20;;;;;;;7.57;5.30;;;;;;;19.34;73.27;101373.09;5014958;28;20492;-66
2022/05/09 18:28:51;;;;;;;7.50;5.45;;;;;;;19.26;73.15;101373.91;5018706;28;20058;-70
2022/05/09 18:31:23;;;;;;;9.48;5.55;;;;;;;19.20;72.41;101374.03;5008792;28;20049;-71
2022/05/09 18:33:54;;;;;;;8.90;5.50;;;;;;;19.18;72.44;101375.47;5010750;28;20057;-72
2022/05/09 18:36:22;;;;;;;6.82;4.85;;;;;;;19.18;72.65;101375.47;5005577;28;20062;-71
2022/05/09 18:39:00;;;;;;;7.47;5.95;;;;;;;19.06;73.59;101367.75;5008053;28;20058;-72
2022/05/09 18:41:28;;;;;;;7.78;5.63;;;;;;;19.00;73.98;101372.59;5011182;28;20050;-72
2022/05/09 18:43:59;;;;;;;6.20;5.00;;;;;;;18.92;74.54;101373.38;5006585;28;20054;-72
2022/05/09 18:46:27;;;;;;;9.52;6.25;;;;;;;18.91;75.96;101372.53;5000358;28;20054;-72
2022/05/09 18:54:31;;;;;;;8.00;5.60;;;;;;;18.77;76.04;101382.91;5000765;28;20050;-72
2022/05/09 18:57:03;;;;;;;9.73;6.03;;;;;;;18.69;76.39;101381.72;5003766;28;20037;-72
2022/05/09 18:59:31;;;;;;;7.30;6.13;;;;;;;18.66;76.52;101394.25;5013118;28;20042;-72
2022/05/09 19:01:59;;;;;;;6.63;5.50;;;;;;;18.66;76.73;101398.97;5003740;28;20516;-72
2022/05/09 19:04:27;;;;;;;9.50;6.20;;;;;;;18.63;76.86;101399.63;5014041;28;20053;-72
2022/05/09 19:06:56;;;;;;;10.63;6.60;;;;;;;18.56;77.10;101404.78;5001091;28;20054;-72
2022/05/09 19:09:28;;;;;;;8.38;5.95;;;;;;;18.58;77.65;101408.84;5015897;28;20049;-72
2022/05/09 19:11:58;;;;;;;8.82;6.20;;;;;;;18.57;77.15;101410.00;5002446;28;20054;-71
2022/05/09 19:14:29;;;;;;;12.32;6.32;;;;;;;18.46;76.58;101425.22;5003359;28;20755;-70
2022/05/09 19:16:59;;;;;;;7.00;5.72;;;;;;;18.37;77.37;101425.97;5006672;28;20495;-72
2022/05/09 19:19:30;;;;;;;7.82;5.45;;;;;;;18.11;79.25;101418.25;5003300;28;20050;-72
2022/05/09 19:22:01;;;;;;;8.27;5.85;;;;;;;17.91;79.32;101425.03;5007713;28;20061;-73
2022/05/09 19:24:29;;;;;;;6.80;5.45;;;;;;;17.70;79.99;101430.16;5001551;28;20046;-73
2022/05/09 19:26:57;;;;;;;9.25;6.50;;;;;;;17.60;80.70;101437.53;5006630;28;20051;-76
2022/05/09 19:29:29;;;;;;;8.55;5.80;;;;;;;17.54;80.33;101436.00;4983642;28;20050;-75
2022/05/09 19:31:58;;;;;;;7.35;5.65;;;;;;;17.47;80.35;101438.34;5008816;28;20065;-75
2022/05/09 19:34:34;;;;;;;6.72;5.82;;;;;;;17.54;80.58;101437.97;5002137;28;20046;-74
2022/05/09 19:37:04;;;;;;;8.65;6.53;;;;;;;17.46;80.30;101439.50;5008161;28;20045;-73
2022/05/09 19:39:32;;;;;;;8.63;5.78;;;;;;;17.48;79.75;101445.53;5003337;28;20693;-74
2022/05/09 19:42:00;;;;;;;11.13;6.03;;;;;;;17.30;81.00;101447.25;5008481;28;20042;-72
2022/05/09 19:44:32;;;;;;;10.15;6.43;;;;;;;17.15;82.33;101457.47;5010857;28;20042;-72
2022/05/09 19:47:03;;;;;;;10.00;6.20;;;;;;;17.14;81.70;101452.22;5010191;28;20500;-74
2022/05/09 19:49:31;;;;;;;9.50;6.40;;;;;;;17.18;81.51;101458.78;5009514;28;20545;-77
2022/05/09 19:54:45;;;;;;;11.65;6.93;;;;;;;17.08;83.27;101459.81;5011684;28;20052;-73
2022/05/09 19:57:13;;;;;;;8.50;6.85;;;;;;;17.06;82.98;101473.13;5002154;28;20042;-74
2022/05/09 19:59:41;;;;;;;7.60;5.80;;;;;;;17.01;82.69;101470.41;5008940;28;20061;-75
2022/05/09 20:02:24;;;;;;;11.55;6.80;;;;;;;16.92;82.97;101468.31;5002270;28;20057;-75
2022/05/09 20:04:53;;;;;;;8.82;6.30;;;;;;;16.76;84.18;101476.03;5011947;28;20038;-75
2022/05/09 20:07:22;;;;;;;10.88;6.80;;;;;;;16.59;85.74;101479.34;5012272;28;20054;-75
2022/05/09 20:09:55;;;;;;;8.60;6.32;;;;;;;16.53;85.77;101483.28;5012165;28;20052;-75
2022/05/09 20:12:26;;;;;;;9.52;6.28;;;;;;;16.46;86.38;101486.41;5012200;28;20042;-75
2022/05/09 20:14:55;;;;;;;8.00;5.63;;;;;;;16.39;84.97;101489.53;5012501;28;20046;-75
2022/05/09 20:17:25;;;;;;;9.05;6.60;;;;;;;16.35;85.50;101483.00;5011136;28;20396;-75
2022/05/09 20:19:55;;;;;;;7.28;5.95;;;;;;;16.29;86.00;101486.94;5011767;28;20058;-75
2022/05/09 20:22:34;;;;;;;9.05;6.68;;;;;;;16.29;86.38;101483.34;5012262;28;20057;-75
2022/05/09 20:25:05;;;;;;;8.43;6.07;;;;;;;16.24;85.95;101489.75;5004434;28;20050;-75
2022/05/09 20:30:20;;;;;;;8.55;6.07;;;;;;;16.26;86.48;101487.50;5001219;28;20054;-75
2022/05/09 20:32:48;;;;;;;9.50;6.93;;;;;;;16.31;87.06;101487.44;4998831;28;20050;-75
2022/05/09 20:35:17;;;;;;;8.50;7.05;;;;;;;16.23;88.04;101496.41;5010983;28;20069;-75
2022/05/09 20:37:54;;;;;;;9.30;6.10;;;;;;;16.23;87.98;101497.22;4987368;28;20049;-75
2022/05/09 20:40:29;;;;;;;;;;;;;;;16.12;89.13;101491.00;5003775;28;20053;-75
2022/05/09 20:42:59;;;;;;;7.70;6.25;;;;;;;16.06;89.89;101497.72;5008206;28;19929;-74
2022/05/09 20:45:26;;;;;;;10.40;7.38;;;;;;;15.98;90.06;101495.59;5011117;28;20396;-75
2022/05/09 20:47:55;;;;;;;10.80;7.60;;;;;;;15.89;91.16;101500.09;5003728;28;20053;-75
2022/05/09 20:50:23;;;;;;;11.35;7.25;;;;;;;15.83;91.68;101502.06;5011607;28;20053;-76
2022/05/09 20:52:53;;;;;;;10.13;7.45;;;;;;;15.77;92.80;101501.31;5011978;28;20038;-76
2022/05/09 20:55:23;;;;;;;9.10;7.18;;;;;;;15.82;90.71;101498.50;5005505;28;20370;-75
2022/05/09 20:57:51;;;;;;;12.43;7.43;;;;;;;15.73;90.38;101503.00;5008089;28;20401;-74
2022/05/09 21:00:23;;;;;;;9.82;7.22;;;;;;;15.67;90.72;101506.94;5006414;28;20057;-75
2022/05/09 21:02:52;;;;;;;11.07;6.53;;;;;;;15.62;90.36;101504.22;4990797;28;20048;-75
2022/05/09 21:05:22;;;;;;;9.68;6.85;;;;;;;15.59;89.93;101505.63;5003740;28;20065;-74
2022/05/09 21:07:50;;;;;;;9.43;6.90;;;;;;;15.50;89.95;101502.69;5003788;28;20329;-75
2022/05/09 21:10:21;;;;;;;9.77;7.13;;;;;;;15.47;91.02;101506.03;5007032;28;20077;-75
2022/05/09 21:12:49;;;;;;;9.55;6.97;;;;;;;15.47;89.89;101506.03;5001406;28;20041;-75
2022/05/09 21:15:17;;;;;;;8.40;6.43;;;;;;;15.54;88.87;101508.47;5009212;28;20046;-75
2022/05/09 21:17:46;;;;;;;9.27;6.72;;;;;;;15.50;89.53;101508.22;5010302;28;20053;-75
2022/05/09 21:20:16;;;;;;;12.50;6.75;;;;;;;15.45;89.49;101500.81;5004122;28;20072;-75
2022/05/09 21:22:46;;;;;;;10.75;7.20;;;;;;;15.41;91.31;101521.00;5003767;28;20413;-74
2022/05/09 21:25:35;;;;;;;11.35;6.95;;;;;;;15.27;91.02;101513.41;5004259;28;20054;-74
2022/05/09 21:28:07;;;;;;;11.88;7.88;;;;;;;15.21;90.94;101509.03;5007694;28;20045;-74
2022/05/09 21:30:36;;;;;;;12.82;7.97;;;;;;;15.17;91.20;101507.97;5008743;28;20065;-78
2022/05/09 21:33:05;;;;;;;12.32;8.10;;;;;;;15.15;90.85;101511.00;5009089;28;20054;-77
2022/05/09 21:35:39;;;;;;;10.27;7.07;;;;;;;15.12;91.94;101510.75;5010523;28;20069;-76
2022/05/09 21:41:19;;;;;;;13.30;7.85;;;;;;;15.03;91.75;101505.88;5013167;28;20404;-77
2022/05/09 21:43:47;;;;;;;11.13;6.35;;;;;;;14.98;91.86;101503.16;5028729;28;20050;-77
2022/05/09 21:46:16;;;;;;;9.77;7.32;;;;;;;14.89;93.09;101510.38;5014494;28;20153;-76
2022/05/09 21:48:44;;;;;;;9.07;6.93;;;;;;;14.82;93.09;101513.47;5015328;28;20052;-75
2022/05/09 21:51:17;;;;;;;10.77;7.60;;;;;;;14.77;93.87;101514.31;5015477;28;20049;-77
2022/05/09 21:53:48;;;;;;;13.45;7.97;;;;;;;14.74;92.83;101509.38;5015594;28;20081;-76
2022/05/09 21:56:17;;;;;;;8.52;6.80;;;;;;;14.70;92.66;101508.25;5015368;28;20049;-77
2022/05/09 21:58:46;;;;;;;9.95;6.60;;;;;;;14.68;92.99;101518.75;5015107;28;20057;-76
2022/05/09 22:01:22;;;;;;;9.43;6.63;;;;;;;14.69;91.57;101517.66;5014456;28;20046;-77
2022/05/09 22:03:50;;;;;;;10.55;6.78;;;;;;;14.70;90.96;101516.53;5013523;28;20057;-77
2022/05/09 22:06:30;;;;;;;9.18;5.95;;;;;;;14.82;89.13;101509.88;5014590;28;20488;-77
2022/05/09 22:09:13;;;;;;;7.65;5.72;;;;;;;14.77;88.64;101513.50;5015782;28;20050;-78
2022/05/09 22:11:41;;;;;;;7.03;5.45;;;;;;;14.72;90.25;101516.25;5015183;28;20125;-76
2022/05/09 22:14:09;;;;;;;7.80;6.00;;;;;;;14.72;89.54;101517.06;5015679;28;20052;-77
2022/05/09 22:16:37;;;;;;;15.57;7.13;;;;;;;14.71;88.76;101509.91;5015539;28;20054;-77
2022/05/09 22:19:06;;;;;;;8.90;6.25;;;;;;;14.73;88.81;101510.47;5015255;28;20073;-77
2022/05/09 22:21:36;;;;;;;7.43;5.68;;;;;;;14.68;89.48;101504.97;5010360;28;20058;-77
2022/05/09 22:24:05;;;;;;;9.35;5.55;;;;;;;14.75;88.44;101511.03;5002171;28;20050;-77
2022/05/09 22:26:41;;;;;;;10.18;6.03;;;;;;;14.79;88.65;101511.28;5002840;28;20065;-77
2022/05/09 22:29:27;;;;;;;8.25;5.82;;;;;;;14.71;89.65;101504.41;4988694;28;20050;-77
2022/05/09 22:32:01;;;;;;;10.90;6.50;;;;;;;14.60;90.45;101513.84;5015324;28;20049;-77
2022/05/09 22:34:32;;;;;;;9.90;5.90;;;;;;;14.58;89.83;101505.03;5014808;28;20049;-77
2022/05/09 22:37:07;;;;;;;8.43;5.80;;;;;;;14.49;92.01;101516.66;5014436;28;20068;-77
2022/05/09 22:39:38;;;;;;;8.18;5.97;;;;;;;14.58;89.82;101516.91;5006716;28;20505;-76
2022/05/09 22:42:17;;;;;;;9.35;5.88;;;;;;;14.70;89.27;101519.28;5012376;28;20496;-76
2022/05/09 22:45:39;;;;;;;7.97;5.13;;;;;;;14.77;88.50;101516.25;5013158;28;20523;-76
2022/05/09 22:48:14;;;;;;;7.82;5.63;;;;;;;14.73;88.60;101517.91;5001673;28;20424;-77
2022/05/09 22:50:43;;;;;;;8.43;5.55;;;;;;;14.63;89.71;101507.75;5014580;28;20046;-77
2022/05/09 22:53:22;;;;;;;8.95;6.28;;;;;;;14.48;90.57;101511.44;5013968;28;20052;-77
2022/05/09 22:55:51;;;;;;;10.60;6.53;;;;;;;14.34;91.50;101511.22;5014380;28;20046;-77
2022/05/09 22:58:19;;;;;;;10.20;5.88;;;;;;;14.26;93.31;101509.06;5014094;28;20065;-77
2022/05/09 23:00:47;;;;;;;10.07;6.22;;;;;;;14.28;92.98;101513.19;4997003;28;20042;-77
2022/05/09 23:03:16;;;;;;;11.05;6.25;;;;;;;14.42;93.14;101507.88;4993577;28;20046;-77
2022/05/09 23:05:49;;;;;;;13.48;6.80;;;;;;;14.37;93.67;101508.72;4992145;28;20054;-77
2022/05/09 23:08:16;;;;;;;8.07;5.93;;;;;;;14.35;92.55;101502.69;5014575;28;20042;-77
2022/05/09 23:10:45;;;;;;;15.55;6.30;;;;;;;14.38;92.77;101504.06;5013900;28;20049;-76